Flight Track Log - Related Links

Times and Time Zones

All times are in EDT time to prevent confusion due to time zone crossing. See the JTL458 flight status page for this flight to view local times or setup timezone preferences in your user account.

Time Position Orientation Groundspeed Altitude Reporting Facility
EDT Latitude Longitude Course Direction KTS MPH feet Rate Location/Type
Fri 02:29:59 PM 41.8344 -86.3717 84° East 236 272 8,100  Level Chicago Center
Fri 02:31:01 PM 41.9067 -86.2950 38° Northeast 339 390 10,000 1,839 Climbing Chicago Center
Fri 02:32:03 PM 41.8981 -86.1514 95° East 383 441 11,900 2,419 Climbing Chicago Center
Fri 02:33:05 PM 41.9000 -86.0022 89° East 395 455 15,000 3,242 Climbing Chicago Center
Fri 02:34:07 PM 41.9117 -85.8447 84° East 418 481 18,600 3,242 Climbing Chicago Center
Fri 02:35:00 PM 41.8446 -85.4943 84° East  Level FlightAware Approximate
Fri 02:35:09 PM 41.9269 -85.6783 83° East 442 509 21,700  Level Chicago Center
Fri 02:36:12 PM 41.9436 -85.5053 83° East 459 528 24,700 2,928 Climbing Chicago Center
Fri 02:37:14 PM 41.9639 -85.3311 81° East 465 535 27,800 3,145 Climbing Chicago Center
Fri 02:38:16 PM 41.9761 -85.1267 85° East 456 525 31,200 2,468 Climbing Chicago Center
Fri 02:39:18 PM 41.9864 -84.9578 85° East 454 522 32,900 1,065 Climbing Chicago Center
Fri 02:40:20 PM 41.9969 -84.7672 86° East 480 552 33,400 1,000 Climbing Chicago Center
Fri 02:41:18 PM 42.0056 -84.5950 86° East 488 562 34,900 1,450 Climbing Cleveland Center
Fri 02:42:20 PM 42.0167 -84.4156 85° East 484 557 36,300 1,113 Climbing Cleveland Center
Fri 02:43:22 PM 42.0253 -84.2436 86° East 483 556 37,200 919 Climbing Cleveland Center
Fri 02:44:24 PM 42.0347 -84.0631 86° East 484 557 38,200 1,065 Climbing Cleveland Center
Fri 02:45:26 PM 42.0464 -83.8458 86° East 486 559 39,400 1,065 Climbing Cleveland Center
Fri 02:46:28 PM 42.0558 -83.6683 86° East 486 559 40,400 768 Climbing Cleveland Center
Fri 02:47:31 PM 42.0650 -83.4744 86° East 481 554 41,000 288 Climbing Cleveland Center
Fri 02:48:33 PM 42.0747 -83.2903 86° East 488 562 41,000  Level Cleveland Center
Fri 02:49:35 PM 42.0817 -83.0986 87° East 488 562 41,000  Level Cleveland Center
Fri 02:50:37 PM 42.0897 -82.9158 87° East 491 565 41,000  Level Cleveland Center
Fri 02:51:39 PM 42.0967 -82.7342 87° East 491 565 41,000  Level Cleveland Center
Fri 02:52:41 PM 42.1039 -82.5503 87° East 492 566 41,000  Level Cleveland Center
Fri 02:53:43 PM 42.1106 -82.3650 87° East 497 572 41,000  Level Cleveland Center
Fri 02:54:46 PM 42.1203 -82.1439 87° East 497 572 41,000  Level Cleveland Center
Fri 02:55:48 PM 42.1272 -81.9531 87° East 497 572 41,000  Level Cleveland Center
Fri 02:56:50 PM 42.1331 -81.7689 87° East 491 565 41,000  Level Cleveland Center
Fri 02:57:52 PM 42.1394 -81.5844 87° East 488 562 41,000  Level Cleveland Center
Fri 02:58:54 PM 42.1444 -81.4022 88° East 486 559 41,000  Level Cleveland Center
Fri 02:59:56 PM 42.1492 -81.2172 88° East 485 558 41,000  Level Cleveland Center
Fri 03:00:58 PM 42.1550 -81.0331 87° East 487 560 41,000  Level Cleveland Center
Fri 03:02:01 PM 42.1592 -80.8439 88° East 495 570 41,000  Level Cleveland Center
Fri 03:03:03 PM 42.1647 -80.6244 88° East 495 570 41,000  Level Cleveland Center
Fri 03:04:05 PM 42.1692 -80.4356 88° East 499 574 41,000  Level Cleveland Center
Fri 03:05:07 PM 42.1681 -80.2475 90° East 499 574 41,000  Level Cleveland Center
Fri 03:06:09 PM 42.1431 -80.0611 100° East 498 573 41,000  Level Cleveland Center
Fri 03:07:11 PM 42.1136 -79.8669 101° East 494 568 41,000  Level Cleveland Center
Fri 03:08:13 PM 42.0869 -79.6853 101° East 494 568 41,000  Level Cleveland Center
Fri 03:09:15 PM 42.0597 -79.5044 101° East 496 571 41,000  Level Cleveland Center
Fri 03:10:18 PM 42.0317 -79.3239 102° East 495 570 41,000  Level Cleveland Center
Fri 03:11:20 PM 42.0042 -79.1456 102° East 493 567 41,000  Level Cleveland Center
Fri 03:12:22 PM 41.9714 -78.9278 101° East 495 570 41,000  Level Cleveland Center
Fri 03:13:24 PM 41.9428 -78.7483 102° East 495 570 41,000 -435 Level Cleveland Center
Fri 03:14:26 PM 41.9158 -78.5703 101° East 494 568 40,100 -919 Descending Cleveland Center
Fri 03:15:28 PM 41.8875 -78.3975 102° East 482 555 39,100 -968 Descending Cleveland Center
Fri 03:16:30 PM 41.8586 -78.2236 103° East 480 552 38,100 -960 Descending Cleveland Center
Fri 03:17:33 PM 41.8300 -78.0475 102° East 482 555 37,100 -1,056 Descending Cleveland Center
Fri 03:18:35 PM 41.7953 -77.8433 103° East 475 547 35,900 -1,065 Descending Cleveland Center
Fri 03:19:37 PM 41.7675 -77.6689 102° East 475 547 34,900 -968 Descending Cleveland Center
Fri 03:20:39 PM 41.7367 -77.4939 103° East 479 551 33,900 -968 Descending Cleveland Center
Fri 03:21:41 PM 41.7061 -77.3222 103° East 479 551 32,900 -968 Descending Cleveland Center
Fri 03:22:43 PM 41.6750 -77.1450 103° East 487 560 31,900 -1,161 Descending Cleveland Center
Fri 03:23:45 PM 41.6206 -76.9428 110° East 486 559 30,500 -1,374 Descending Cleveland Center
Fri 03:24:54 PM 41.5739 -76.7717 110° East 483 556 28,900 -1,512 Descending New York Center
Fri 03:25:52 PM 41.5225 -76.5897 111° Southeast 477 549 27,300 -1,550 Descending New York Center
Fri 03:26:54 PM 41.4783 -76.4253 110° East 477 549 25,800 -1,561 Descending New York Center
Fri 03:27:55 PM 41.4325 -76.2469 109° East 483 556 24,100 -1,525 Descending New York Center
Fri 03:28:52 PM 41.3856 -76.0939 112° Southeast 494 568 22,800 -1,538 Descending New York Center
Fri 03:29:52 PM 41.3403 -75.9356 111° Southeast 484 557 21,100 -1,650 Descending New York Center
Fri 03:30:52 PM 41.2972 -75.7747 110° East 466 536 19,500 -1,050 Descending New York Center
Fri 03:31:52 PM 41.2439 -75.6081 113° Southeast 451 519 19,000 -1,289 Descending New York Center
Fri 03:32:53 PM 41.1975 -75.4669 114° Southeast 435 501 16,900 -2,459 Descending New York Center
Fri 03:33:54 PM 41.1544 -75.3397 114° Southeast 399 459 14,000 -2,750 Descending New York Center
Fri 03:34:53 PM 41.1192 -75.2300 113° Southeast 366 421 11,400 -2,723 Descending New York Center
Fri 03:35:53 PM 41.0778 -75.1089 114° Southeast 334 384 8,600 -2,400 Descending New York Center
Fri 03:36:53 PM 41.0439 -75.0106 115° Southeast 314 361 6,600 -1,261 Descending New York Center
Fri 03:37:52 PM 41.0133 -74.9289 116° Southeast 283 326 6,100 -908 Descending New York Center
Fri 03:38:52 PM 40.9903 -74.8175 105° East 283 326 4,800 -992 Descending New York Center
Fri 03:39:53 PM 40.9700 -74.7339 108° East 265 305 4,100 -344 Descending New York Center
Fri 03:40:54 PM 40.9483 -74.6364 106° East 253 291 4,100 -500 Level New York Center
Fri 03:41:53 PM 40.9300 -74.5611 108° East 247 284 3,100 -500 Descending New York Center
Fri 03:42:54 PM 40.9119 -74.4725 105° East 236 272 3,100 -149 Level New York Center
Fri 03:43:54 PM 40.8972 -74.4111 108° East 214 246 2,800 -655 Descending New York Center
Fri 03:44:53 PM 40.8611 -74.3653 136° Southeast 172 198 1,800 1,600 Descending New York Center
Fri 03:45:54 PM 40.8278 -74.3608 174° South 133 153 6,000 2,100 Climbing New York Center
Fri 03:46:53 PM 40.7908 -74.3453 162° South 133 153 6,000  Level New York Center
Fri 03:47:54 PM 40.7558 -74.3297 161° South 133 153 6,000  Level New York Center
Fri 03:48:54 PM 40.7189 -74.3142 162° South 133 153 6,000  Level New York Center
Fri 03:49:52 PM 40.6983 -74.3047 161° South 133 153 6,000  Level New York Center

Login

Don't have an account? Register now (free) for customized features, flight alerts, and more!